Saucier, Mississippi
Current Conditions -  °F | °C
As of 11:53 PM on Friday 19 Dec 2014 (Local Time) from KGPT Reporting Station
Light Rain Light Rain  
Wind Chill: 43°   Ceiling: 800
Heat Index: 47°   Visibility: 6mi
Dew Point: 45°   Wind: 8mph
Humidity: 93%   Direction: 40°NE
Pressure: 30.07"   Gusts: NA
Location:  30.64°N, 89.13°W
Report Text: KGPT 200553Z AUTO 04007KT 6SM -RA BR OVC008 08/07 A3007 RMK AO2 RAE24B41 CIG 006V011 SLP183 P0001 60016 T00830072 10089 20083 401280083 58008
Loading
Personal Weather Stations






























Interactive Weather Map New forecast layout! Learn more

10-Day Weather Forecast

Advertisements
Track Severe Weather on mobile